• Join FlightAware (Why Join?)
  • Login
  • US Flag 
05:09AM EST


 

Airport Tracker/Info


-or-


 

Live Flight TrackerFlight Track Log ✈ EJA951 ✈ 16-Jul-2013 ✈ KXNA - KTEB

Flight Track Log - Related Links

Times and Time Zones

All times are in EDT time to prevent confusion due to time zone crossing. See the EJA951 flight status page for this flight to view local times or setup timezone preferences in your user account.

Time Position Orientation Groundspeed Altitude Reporting Facility
EDT Latitude Longitude Course Direction KTS MPH feet Rate Location/Type
12:51AM 36.2931 -94.2089 96° East 398 458 8,200  Level Memphis Center
12:52AM 36.2747 -94.1283 106° East 309 356 10,700 2,520 Climbing Memphis Center
12:53AM 36.3042 -94.0447 66° East 254 292 13,300 2,340 Climbing Memphis Center
12:54AM 36.3364 -93.9483 67° East 267 307 15,400 2,100 Climbing Memphis Center
12:55AM 36.3725 -93.8467 66° East 294 338 17,500 1,800 Climbing Memphis Center
12:56AM 36.2389 -93.5222 97° East  Level FlightAware Approximate
12:56AM 36.4047 -93.7425 69° East 309 356 19,100  Level Memphis Center
12:57AM 36.2279 -93.3670 96° East  Level FlightAware Approximate
12:57AM 36.4300 -93.6456 72° East 321 369 21,000  Level Memphis Center
12:58AM 36.4681 -93.5356 67° East 346 398 22,800 1,800 Climbing Kansas City Center
12:59AM 36.5072 -93.4192 67° East 359 413 24,700 1,860 Climbing Kansas City Center
01:00AM 36.5453 -93.2964 69° East 374 430 26,600 1,740 Climbing Kansas City Center
01:01AM 36.5856 -93.1725 68° East 382 440 28,300 1,800 Climbing Kansas City Center
01:02AM 36.6339 -93.0247 68° East 391 450 30,300 1,920 Climbing Kansas City Center
01:03AM 36.6761 -92.8925 68° East 403 464 32,200 1,740 Climbing Kansas City Center
01:04AM 36.7186 -92.7592 68° East 410 472 33,900 1,560 Climbing Kansas City Center
01:05AM 36.7625 -92.6217 68° East 419 482 35,400 1,380 Climbing Kansas City Center
01:06AM 36.8069 -92.4806 68° East 429 494 36,800 1,320 Climbing Kansas City Center
01:07AM 36.8531 -92.3328 69° East 445 512 38,100 1,500 Climbing Kansas City Center
01:09AM 36.8983 -92.1858 69° East 451 519 39,900 1,320 Climbing Kansas City Center
01:09AM 36.9442 -92.0389 69° East 453 521 40,800 540 Climbing Kansas City Center
01:10AM 36.9908 -91.8875 69° East 461 531 41,000 60 Climbing Kansas City Center
01:12AM 37.0378 -91.7325 69° East 471 542 41,000  Level Kansas City Center
01:13AM 37.0867 -91.5756 69° East 479 551 41,000  Level Kansas City Center
01:14AM 37.1342 -91.4181 69° East 483 556 41,000  Level Kansas City Center
01:15AM 37.1808 -91.2617 69° East 482 555 41,000  Level Kansas City Center
01:16AM 37.2281 -91.1044 69° East 482 555 41,000  Level Kansas City Center
01:17AM 37.2722 -90.9508 70° East 476 548 41,000  Level Kansas City Center
01:18AM 37.3189 -90.7953 69° East 475 547 41,000  Level Kansas City Center
01:19AM 37.3719 -90.6194 69° East 474 545 41,000  Level Kansas City Center
01:20AM 37.4172 -90.4653 70° East 473 544 41,000  Level Kansas City Center
01:21AM 37.4611 -90.3150 70° East 466 536 41,000  Level Kansas City Center
01:22AM 37.5044 -90.1625 70° East 465 535 41,000  Level Kansas City Center
01:23AM 37.5472 -90.0147 70° East 465 535 41,000  Level Kansas City Center
01:24AM 37.5936 -89.8522 70° East 473 544 41,000  Level Kansas City Center
01:25AM 37.6383 -89.6942 70° East 478 550 41,000  Level Kansas City Center
01:26AM 37.6825 -89.5389 70° East 476 548 41,000  Level Kansas City Center
01:27AM 37.7258 -89.3833 71° East 475 547 41,000  Level Kansas City Center
01:28AM 37.7706 -89.2283 70° East 473 544 41,000  Level Kansas City Center
01:29AM 37.8181 -89.0550 71° East 468 539 41,000  Level Kansas City Center
01:30AM 37.8547 -88.9194 71° East 470 541 41,000  Level Kansas City Center
01:31AM 37.8986 -88.7633 70° East 472 543 41,000  Level Kansas City Center
01:32AM 37.9411 -88.6103 71° East 465 535 41,000  Level Kansas City Center
01:33AM 37.9825 -88.4539 71° East 467 537 41,000  Level Kansas City Center
01:34AM 38.0244 -88.2967 71° East 469 540 41,000  Level Kansas City Center
01:35AM 38.0653 -88.1386 72° East 471 542 41,000  Level Kansas City Center
01:36AM 38.1083 -87.9811 71° East 471 542 41,000  Level Kansas City Center
01:37AM 38.1503 -87.8228 71° East 472 543 41,000  Level Kansas City Center
01:38AM 38.1925 -87.6639 71° East 473 544 41,000  Level Kansas City Center
01:39AM 38.2353 -87.5078 71° East 468 539 41,000  Level Kansas City Center
01:40AM 38.2925 -87.2881 72° East 467 537 41,000  Level Indianapolis Center
01:41AM 38.3336 -87.1275 72° East 477 549 41,000  Level Indianapolis Center
01:42AM 38.3733 -86.9667 72° East 479 551 41,000  Level Indianapolis Center
01:43AM 38.4186 -86.7911 72° East 473 544 41,000  Level Indianapolis Center
01:44AM 38.4592 -86.6317 72° East 471 542 41,000  Level Indianapolis Center
01:45AM 38.4992 -86.4722 72° East 471 542 41,000  Level Indianapolis Center
01:46AM 38.5389 -86.3128 72° East 470 541 41,000  Level Indianapolis Center
01:47AM 38.5781 -86.1539 72° East 469 540 41,000  Level Indianapolis Center
01:48AM 38.6186 -85.9956 72° East 468 539 41,000  Level Indianapolis Center
01:49AM 38.6583 -85.8319 73° East 470 541 41,000  Level Indianapolis Center
01:50AM 38.6961 -85.6739 73° East 469 540 41,000  Level Indianapolis Center
01:51AM 38.7347 -85.5161 73° East 468 539 41,000  Level Indianapolis Center
01:52AM 38.7719 -85.3558 73° East 471 542 41,000  Level Indianapolis Center
01:53AM 38.8108 -85.1964 73° East 472 543 41,000  Level Indianapolis Center
01:54AM 38.8481 -85.0369 73° East 471 542 41,000  Level Indianapolis Center
01:55AM 38.8867 -84.8775 73° East 470 541 41,000  Level Indianapolis Center
01:56AM 38.9239 -84.7136 74° East 472 543 41,000  Level Indianapolis Center
01:57AM 38.9625 -84.5503 73° East 473 544 41,000  Level Indianapolis Center
01:58AM 38.9994 -84.3869 74° East 475 547 41,000  Level Indianapolis Center
01:59AM 39.0372 -84.2233 73° East 474 545 41,000  Level Indianapolis Center
02:00AM 39.0736 -84.0600 74° East 472 543 41,000  Level Indianapolis Center
02:01AM 39.1106 -83.8983 74° East 468 539 41,000  Level Indianapolis Center
02:02AM 39.1458 -83.7372 74° East 467 537 41,000  Level Indianapolis Center
02:03AM 39.1817 -83.5753 74° East 468 539 41,000  Level Indianapolis Center
02:04AM 39.2161 -83.4161 74° East 464 534 41,000  Level Indianapolis Center
02:05AM 39.2517 -83.2561 74° East 463 533 41,000  Level Indianapolis Center
02:06AM 39.2869 -83.0964 74° East 464 534 41,000  Level Indianapolis Center
02:07AM 39.3211 -82.9344 75° East 464 534 41,000  Level Indianapolis Center
02:08AM 39.3581 -82.7672 74° East 479 551 41,000  Level Indianapolis Center
02:09AM 39.3939 -82.5978 75° East 486 559 41,000  Level Indianapolis Center
02:10AM 39.4286 -82.4292 75° East 487 560 41,000  Level Indianapolis Center
02:11AM 39.4658 -82.2561 74° East 489 563 41,000  Level Indianapolis Center
02:12AM 39.5008 -82.0892 75° East 485 558 41,000  Level Indianapolis Center
02:13AM 39.5353 -81.9172 75° East 489 563 41,000  Level Indianapolis Center
02:14AM 39.5703 -81.7461 75° East 489 563 41,000  Level Indianapolis Center
02:15AM 39.6053 -81.5753 75° East 489 563 41,000  Level Indianapolis Center
02:16AM 39.6389 -81.4019 76° East 493 567 41,000  Level Indianapolis Center
02:17AM 39.6731 -81.2303 75° East 492 566 41,000  Level Indianapolis Center
02:18AM 39.7069 -81.0586 76° East 490 564 41,000  Level Indianapolis Center
02:19AM 39.7406 -80.8847 76° East 494 568 41,000  Level Indianapolis Center
02:21AM 39.7824 -80.6879 74° East  Level FlightAware Approximate
02:28AM 39.9893 -79.6049 77° East  Level FlightAware Approximate
02:29AM 40.0166 -79.4493 77° East  Level FlightAware Approximate
02:30AM 40.0436 -79.2934 77° East  Level FlightAware Approximate
02:31AM 40.0705 -79.1375 77° East  Level FlightAware Approximate
02:32AM 40.0971 -78.9815 77° East  Level FlightAware Approximate
02:32AM 40.1467 -78.6794 78° East 506 582 41,000  Level New York Center
02:33AM 40.1235 -78.8253 77° East  Level FlightAware Approximate
02:33AM 40.1719 -78.5194 78° East 500 575 41,000  Level New York Center
02:34AM 40.1497 -78.6690 78° East  Level FlightAware Approximate
02:34AM 40.2022 -78.3406 77° East 500 575 41,000  Level New York Center
02:35AM 40.1757 -78.5126 78° East  Level FlightAware Approximate
02:35AM 40.2319 -78.1669 77° East 500 575 41,000  Level New York Center
02:36AM 40.2015 -78.3561 78° East  Level FlightAware Approximate
02:36AM 40.2617 -77.9906 77° East 500 575 41,000  Level New York Center
02:37AM 40.2942 -77.7953 78° East 505 581 41,000 -540 Level New York Center
02:38AM 40.3253 -77.6211 77° East 498 573 40,000 -1,320 Descending New York Center
02:39AM 40.3542 -77.4469 78° East 498 573 38,400 -1,380 Descending New York Center
02:40AM 40.3786 -77.2694 80° East 498 573 37,300 -1,320 Descending New York Center
02:41AM 40.4133 -77.0900 76° East 498 573 35,900 -1,500 Descending New York Center
02:42AM 40.4461 -76.9047 77° East 508 585 34,400 -1,500 Descending New York Center
02:43AM 40.4786 -76.7139 77° East 524 603 33,000 -1,440 Descending New York Center
02:44AM 40.5108 -76.5283 77° East 524 603 31,500 -2,040 Descending New York Center
02:45AM 40.5447 -76.3400 77° East 524 603 29,000 -2,760 Descending New York Center
02:46AM 40.5753 -76.1756 76° East 524 603 26,200 -2,760 Descending New York Center
02:47AM 40.6042 -75.9975 78° East 514 592 23,500 -2,640 Descending New York Center
02:48AM 40.6372 -75.8167 76° East 486 559 20,900 -2,580 Descending New York Center
02:49AM 40.6647 -75.6572 77° East 463 533 18,400 -2,580 Descending New York Center
02:50AM 40.6897 -75.5003 78° East 443 510 15,900 -2,400 Descending New York Center
02:51AM 40.7122 -75.3514 79° East 429 494 13,700 -2,220 Descending New York Center
02:52AM 40.7364 -75.2158 77° East 413 475 11,500 -2,040 Descending New York Center
02:53AM 40.7553 -75.0994 78° East 359 413 9,700 -1,320 Descending New York Center
02:54AM 40.7711 -75.0072 77° East 300 345 8,900 -360 Descending New York Center
02:55AM 40.7836 -74.8875 82° East 290 334 9,000 -420 Climbing New York Center
02:56AM 40.7833 -74.7750 90° East 298 343 8,100 -1,320 Descending New York Center
02:57AM 40.7825 -74.6708 91° East 292 336 6,400 -1,740 Descending New York Center
02:58AM 40.7833 -74.6000 89° East 272 313 5,200 -1,620 Descending New York TRACON
02:59AM 40.7833 -74.5000 90° East 259 298 3,700 -1,140 Descending New York TRACON
03:00AM 40.7833 -74.4167 90° East 255 293 3,000 -780 Descending New York TRACON
03:01AM 40.7833 -74.3333 90° East 217 250 2,200 -540 Descending New York TRACON
03:02AM 40.7833 -74.2500 90° East 214 246 2,000 -120 Descending New York TRACON
03:03AM 40.7833 -74.1833 90° East 188 216 2,000 -360 Level New York TRACON
03:04AM 40.8000 -74.1333 66° East 146 168 1,300 -720 Descending New York TRACON
03:05AM 40.8333 -74.1000 37° Northeast 135 155 600 -720 Descending New York TRACON